createdAt,value
2018-03-26T00:00:17.147Z,91.70
2018-03-26T00:02:44.645Z,91.70
2018-03-26T00:05:12.882Z,91.70
2018-03-26T00:07:40.365Z,91.70
2018-03-26T00:10:08.632Z,91.90
2018-03-26T00:12:36.892Z,92.10
2018-03-26T00:15:04.376Z,92.10
2018-03-26T00:17:32.628Z,92.10
2018-03-26T00:20:00.109Z,92.10
2018-03-26T00:22:27.608Z,91.70
2018-03-26T00:24:55.067Z,91.70
2018-03-26T00:27:22.566Z,91.60
2018-03-26T00:29:50.038Z,91.60
2018-03-26T00:32:18.292Z,91.60
2018-03-26T00:34:45.778Z,91.50
2018-03-26T00:37:14.031Z,92.10
2018-03-26T00:39:41.521Z,92.00
2018-03-26T00:42:09.743Z,92.50
2018-03-26T00:44:37.219Z,92.50
2018-03-26T00:47:04.731Z,92.70
2018-03-26T00:49:32.196Z,93.00
2018-03-26T00:51:59.686Z,93.10
2018-03-26T00:54:27.161Z,93.30
2018-03-26T00:56:54.640Z,93.20
2018-03-26T00:59:22.186Z,93.40
2018-03-26T01:01:50.409Z,93.50
2018-03-26T01:04:17.905Z,93.40
2018-03-26T01:06:45.380Z,93.70
2018-03-26T01:09:13.618Z,94.00
2018-03-26T01:11:41.115Z,94.00
2018-03-26T01:14:09.357Z,94.40
2018-03-26T01:16:36.848Z,94.30
2018-03-26T01:19:05.352Z,94.60
2018-03-26T01:21:32.817Z,94.60
2018-03-26T01:24:00.300Z,94.70
2018-03-26T01:26:27.783Z,94.80
2018-03-26T01:28:55.242Z,94.90
2018-03-26T01:31:22.717Z,95.00
2018-03-26T01:33:50.408Z,95.20
2018-03-26T01:36:18.651Z,95.90
2018-03-26T01:38:46.909Z,96.10
2018-03-26T01:41:14.390Z,96.10
2018-03-26T01:43:48.776Z,96.20
2018-03-26T01:46:16.244Z,96.20
2018-03-26T01:48:43.718Z,96.30
2018-03-26T01:51:11.955Z,96.80
2018-03-26T01:53:39.449Z,96.70
2018-03-26T01:56:09.478Z,96.80
2018-03-26T01:58:36.952Z,96.80
2018-03-26T02:01:04.446Z,96.90
2018-03-26T02:03:31.956Z,97.00
2018-03-26T02:05:59.430Z,97.20
2018-03-26T02:08:33.432Z,97.30
2018-03-26T02:11:00.941Z,97.60
2018-03-26T02:13:28.413Z,96.90
2018-03-26T02:15:56.636Z,96.90
2018-03-26T02:18:24.139Z,96.90
2018-03-26T02:20:52.378Z,97.20
2018-03-26T02:23:19.874Z,97.00
2018-03-26T02:25:48.117Z,97.50
2018-03-26T02:28:15.613Z,97.20
2018-03-26T02:30:43.875Z,97.20
2018-03-26T02:33:11.340Z,97.10
2018-03-26T02:35:43.236Z,97.60
2018-03-26T02:38:10.711Z,97.60
2018-03-26T02:40:38.166Z,97.60
2018-03-26T02:43:06.439Z,97.50
2018-03-26T02:45:33.928Z,97.40
2018-03-26T02:48:01.394Z,97.10
2018-03-26T02:50:28.884Z,96.90
2018-03-26T02:52:56.367Z,96.90
2018-03-26T02:55:23.834Z,96.70
2018-03-26T02:57:52.096Z,96.60
2018-03-26T03:00:19.642Z,96.60
2018-03-26T03:02:47.118Z,96.70
2018-03-26T03:05:14.592Z,96.50
2018-03-26T03:07:42.052Z,96.50
2018-03-26T03:10:09.533Z,96.40
2018-03-26T03:12:36.993Z,96.40
2018-03-26T03:15:04.459Z,96.40
2018-03-26T03:17:32.731Z,96.30
2018-03-26T03:20:00.208Z,96.20
2018-03-26T03:22:28.629Z,96.30
2018-03-26T03:24:56.122Z,96.20
2018-03-26T03:27:24.358Z,96.20
2018-03-26T03:29:51.849Z,96.20
2018-03-26T03:32:19.323Z,96.10
2018-03-26T03:34:46.799Z,96.10
2018-03-26T03:37:14.274Z,96.00
2018-03-26T03:39:41.767Z,95.90
2018-03-26T03:42:09.249Z,95.90
2018-03-26T03:44:37.496Z,95.80
2018-03-26T03:47:04.987Z,95.70
2018-03-26T03:49:33.457Z,95.60
2018-03-26T03:52:01.716Z,95.80
2018-03-26T03:54:29.185Z,95.40
2018-03-26T03:56:56.682Z,95.50
2018-03-26T03:59:24.195Z,95.50
2018-03-26T04:01:51.660Z,95.40
2018-03-26T04:04:19.123Z,95.40
2018-03-26T04:06:46.633Z,95.40
2018-03-26T04:09:14.098Z,95.30
2018-03-26T04:11:41.572Z,95.30
2018-03-26T04:14:09.068Z,95.40
2018-03-26T04:16:37.286Z,95.40
2018-03-26T04:19:04.750Z,95.40
2018-03-26T04:21:32.240Z,95.40
2018-03-26T04:24:00.489Z,95.20
2018-03-26T04:26:27.976Z,95.20
2018-03-26T04:28:56.221Z,95.50
2018-03-26T04:31:23.673Z,95.40
2018-03-26T04:33:51.135Z,95.50
2018-03-26T04:36:19.229Z,95.50
2018-03-26T04:38:46.688Z,95.50
2018-03-26T04:41:14.133Z,95.80
2018-03-26T04:43:41.649Z,95.90
2018-03-26T04:46:09.232Z,96.00
2018-03-26T04:48:36.703Z,96.20
2018-03-26T04:51:04.203Z,96.50
2018-03-26T04:53:31.680Z,96.60
2018-03-26T04:55:59.148Z,96.60
2018-03-26T04:58:26.635Z,96.60
2018-03-26T05:00:54.122Z,96.60
2018-03-26T05:03:23.037Z,96.70
2018-03-26T05:05:50.517Z,96.60
2018-03-26T05:08:17.988Z,96.60
2018-03-26T05:10:45.452Z,96.50
2018-03-26T05:13:12.953Z,96.40
2018-03-26T05:15:40.426Z,96.30
2018-03-26T05:18:07.904Z,96.40
2018-03-26T05:20:35.385Z,96.40
2018-03-26T05:23:02.846Z,96.80
2018-03-26T05:25:30.336Z,96.30
2018-03-26T05:27:57.845Z,96.30
2018-03-26T05:30:25.316Z,96.40
2018-03-26T05:32:52.782Z,96.20
2018-03-26T05:35:21.053Z,96.40
2018-03-26T05:37:48.535Z,96.40
2018-03-26T05:40:24.264Z,96.20
2018-03-26T05:42:51.824Z,96.20
2018-03-26T05:45:19.294Z,96.60
2018-03-26T05:47:48.583Z,97.60
2018-03-26T05:50:16.825Z,97.60
2018-03-26T05:52:44.313Z,97.50
2018-03-26T05:55:11.783Z,97.50
2018-03-26T05:57:40.022Z,97.40
2018-03-26T06:00:07.543Z,97.40
2018-03-26T06:02:35.054Z,97.40
2018-03-26T06:05:02.567Z,97.40
2018-03-26T06:07:30.834Z,97.60
2018-03-26T06:09:58.318Z,97.50
2018-03-26T06:12:25.827Z,97.60
2018-03-26T06:14:53.465Z,97.60
2018-03-26T06:17:20.968Z,97.50
2018-03-26T06:19:48.484Z,97.50
2018-03-26T06:22:15.960Z,97.40
2018-03-26T06:24:43.458Z,97.30
2018-03-26T06:27:10.941Z,97.00
2018-03-26T06:29:44.336Z,97.00
2018-03-26T06:32:11.835Z,96.80
2018-03-26T06:34:40.078Z,97.00
2018-03-26T06:37:17.531Z,96.90
2018-03-26T06:39:45.021Z,96.80
2018-03-26T06:42:12.507Z,96.60
2018-03-26T06:44:40.757Z,97.20
2018-03-26T06:47:08.249Z,96.80
2018-03-26T06:49:35.737Z,96.70
2018-03-26T06:52:03.214Z,96.80
2018-03-26T06:54:30.685Z,96.70
2018-03-26T06:56:58.156Z,96.60
2018-03-26T06:59:25.658Z,96.70
2018-03-26T07:01:53.136Z,96.60
2018-03-26T07:04:20.605Z,96.70
2018-03-26T07:06:48.118Z,96.70
2018-03-26T07:09:15.601Z,96.50
2018-03-26T07:11:43.096Z,96.40
2018-03-26T07:14:10.591Z,96.50
2018-03-26T07:16:38.068Z,96.40
2018-03-26T07:19:05.539Z,96.70
2018-03-26T07:21:33.023Z,97.10
2018-03-26T07:24:00.481Z,97.10
2018-03-26T07:26:27.965Z,97.10
2018-03-26T07:28:56.275Z,96.70
2018-03-26T07:31:24.486Z,96.90
2018-03-26T07:33:51.946Z,96.80
2018-03-26T07:36:19.435Z,97.10
2018-03-26T07:38:46.927Z,97.10
2018-03-26T07:41:14.468Z,97.10
2018-03-26T07:43:42.842Z,97.20
2018-03-26T07:46:10.312Z,97.10
2018-03-26T07:48:37.799Z,97.20
2018-03-26T07:51:05.267Z,97.20
2018-03-26T07:53:32.773Z,97.10
2018-03-26T07:56:00.343Z,97.00
2018-03-26T07:58:27.813Z,96.60
2018-03-26T08:00:55.334Z,96.90
2018-03-26T08:03:23.560Z,97.20
2018-03-26T08:05:51.060Z,97.10
2018-03-26T08:08:19.282Z,97.20
2018-03-26T08:10:46.766Z,97.20
2018-03-26T08:13:14.276Z,97.20
2018-03-26T08:15:41.756Z,97.20
2018-03-26T08:18:09.227Z,97.00
2018-03-26T08:20:37.482Z,97.30
2018-03-26T08:23:04.947Z,97.20
2018-03-26T08:25:32.415Z,97.40
2018-03-26T08:27:59.902Z,97.80
2018-03-26T08:30:28.144Z,97.80
2018-03-26T08:32:55.619Z,97.80
2018-03-26T08:35:23.147Z,97.50
2018-03-26T08:37:50.640Z,97.50
2018-03-26T08:40:18.105Z,97.50
2018-03-26T08:42:45.599Z,97.60
2018-03-26T08:45:13.108Z,97.90
2018-03-26T08:47:40.585Z,97.90
2018-03-26T08:50:14.894Z,98.50
2018-03-26T08:52:42.369Z,98.50
2018-03-26T08:55:10.645Z,98.70
2018-03-26T08:57:38.114Z,98.70
2018-03-26T09:00:05.759Z,98.80
2018-03-26T09:02:33.263Z,99.00
2018-03-26T09:05:00.777Z,98.90
2018-03-26T09:07:28.299Z,98.90
2018-03-26T09:09:55.806Z,98.70
2018-03-26T09:12:23.292Z,98.50
2018-03-26T09:14:50.776Z,98.40
2018-03-26T09:17:18.279Z,98.50
2018-03-26T09:19:45.767Z,98.40
2018-03-26T09:22:13.257Z,98.30
2018-03-26T09:24:40.740Z,98.50
2018-03-26T09:27:08.250Z,98.30
2018-03-26T09:29:35.753Z,97.90
2018-03-26T09:32:04.014Z,97.80
2018-03-26T09:34:32.240Z,97.10
2018-03-26T09:36:59.734Z,97.10
2018-03-26T09:39:27.201Z,96.50
2018-03-26T09:41:54.670Z,96.50
2018-03-26T09:44:22.160Z,96.10
2018-03-26T09:46:49.656Z,95.70
2018-03-26T09:49:17.137Z,95.60
2018-03-26T09:51:45.974Z,94.70
2018-03-26T09:54:13.454Z,94.70
2018-03-26T09:56:40.941Z,94.60
2018-03-26T09:59:09.203Z,93.60
2018-03-26T10:01:42.377Z,93.50
2018-03-26T10:04:09.873Z,92.70
2018-03-26T10:06:38.112Z,92.90
2018-03-26T10:09:05.584Z,92.90
2018-03-26T10:11:33.118Z,92.70
2018-03-26T10:14:00.605Z,92.70
2018-03-26T10:16:28.090Z,92.30
2018-03-26T10:18:55.592Z,92.10
2018-03-26T10:21:23.112Z,92.00
2018-03-26T10:23:50.592Z,91.80
2018-03-26T10:26:18.082Z,91.90
2018-03-26T10:28:45.547Z,91.70
2018-03-26T10:31:13.083Z,91.70
2018-03-26T10:33:40.581Z,91.80
2018-03-26T10:36:08.824Z,91.00
2018-03-26T10:38:36.299Z,91.00
2018-03-26T10:41:03.783Z,90.40
2018-03-26T10:43:32.041Z,83.90
2018-03-26T10:46:00.276Z,83.80
2018-03-26T10:48:27.763Z,83.80
2018-03-26T10:50:55.235Z,84.30
2018-03-26T10:53:23.463Z,84.30
2018-03-26T10:55:50.960Z,84.30
2018-03-26T10:58:19.235Z,80.90
2018-03-26T11:00:47.496Z,80.70
2018-03-26T11:03:14.951Z,80.70
2018-03-26T11:05:42.501Z,79.00
2018-03-26T11:08:09.963Z,81.50
2018-03-26T11:10:37.459Z,80.20
2018-03-26T11:13:04.992Z,78.10
2018-03-26T11:15:32.472Z,78.40
2018-03-26T11:18:00.730Z,80.40
2018-03-26T11:20:28.250Z,80.40
2018-03-26T11:22:55.727Z,79.80
2018-03-26T11:25:23.232Z,80.60
2018-03-26T11:27:50.720Z,80.90
2018-03-26T11:30:18.202Z,80.00
2018-03-26T11:32:45.684Z,78.00
2018-03-26T11:35:13.943Z,80.50
2018-03-26T11:37:41.436Z,79.80
2018-03-26T11:40:08.926Z,76.00
2018-03-26T11:42:36.381Z,74.50
2018-03-26T11:45:03.894Z,74.60
2018-03-26T11:47:32.136Z,76.10
2018-03-26T11:49:59.643Z,76.00
2018-03-26T11:52:27.148Z,77.30
2018-03-26T11:54:54.644Z,76.40
2018-03-26T11:57:23.751Z,75.20
2018-03-26T11:59:52.330Z,75.10
2018-03-26T12:02:19.872Z,74.50
2018-03-26T12:04:48.117Z,74.00
2018-03-26T12:07:15.617Z,73.90
2018-03-26T12:09:43.875Z,73.20
2018-03-26T12:12:11.365Z,73.30
2018-03-26T12:14:39.149Z,72.60
2018-03-26T12:17:06.874Z,73.70
2018-03-26T12:19:35.143Z,74.60
2018-03-26T12:22:03.387Z,71.90
2018-03-26T12:24:42.860Z,71.90
2018-03-26T12:27:11.119Z,69.90
2018-03-26T12:29:50.366Z,69.90
2018-03-26T12:32:18.631Z,71.40
2018-03-26T12:34:58.031Z,71.40
2018-03-26T12:37:25.522Z,68.60
2018-03-26T12:39:53.024Z,68.60
2018-03-26T12:42:20.511Z,70.10
2018-03-26T12:44:59.842Z,70.20
2018-03-26T12:47:27.303Z,65.90
2018-03-26T12:49:54.788Z,64.10
2018-03-26T12:52:34.224Z,65.10
2018-03-26T12:55:01.688Z,64.20
2018-03-26T12:57:41.544Z,59.80
2018-03-26T13:00:09.027Z,59.90
2018-03-26T13:02:36.548Z,58.90
2018-03-26T13:05:04.795Z,59.10
2018-03-26T13:07:32.296Z,58.60
2018-03-26T13:10:00.586Z,55.80
2018-03-26T13:12:28.818Z,54.00
2018-03-26T13:14:56.315Z,54.20
2018-03-26T13:17:24.563Z,54.30
2018-03-26T13:19:52.133Z,54.40
2018-03-26T13:22:20.452Z,51.00
2018-03-26T13:24:47.923Z,50.60
2018-03-26T13:27:15.474Z,54.60
2018-03-26T13:29:42.974Z,57.90
2018-03-26T13:32:10.468Z,60.80
2018-03-26T13:34:38.006Z,59.80
2018-03-26T13:37:06.299Z,58.70
2018-03-26T13:39:33.812Z,58.50
2018-03-26T13:42:01.296Z,59.20
2018-03-26T13:44:28.804Z,58.80
2018-03-26T13:46:56.392Z,57.00
2018-03-26T13:49:23.891Z,56.70
2018-03-26T13:51:51.400Z,56.20
2018-03-26T13:54:18.893Z,58.10
2018-03-26T13:56:47.132Z,59.40
2018-03-26T13:59:14.636Z,59.40
2018-03-26T14:01:42.142Z,59.90
2018-03-26T14:04:09.648Z,61.50
2018-03-26T14:06:37.893Z,59.40
2018-03-26T14:09:17.211Z,59.80
2018-03-26T14:11:56.513Z,59.90
2018-03-26T14:14:35.828Z,59.70
2018-03-26T14:17:15.161Z,60.10
2018-03-26T14:19:42.682Z,60.70
2018-03-26T14:22:10.221Z,60.50
2018-03-26T14:24:37.734Z,61.20
2018-03-26T14:27:05.986Z,62.80
2018-03-26T14:29:33.540Z,62.90
2018-03-26T14:32:01.005Z,62.80
2018-03-26T14:34:28.501Z,62.80
2018-03-26T14:36:56.775Z,61.00
2018-03-26T14:39:24.272Z,60.90
2018-03-26T14:41:51.769Z,58.90
2018-03-26T14:44:20.052Z,60.40
2018-03-26T14:46:47.527Z,60.40
2018-03-26T14:49:15.040Z,60.70
2018-03-26T14:51:42.500Z,61.40
2018-03-26T14:54:09.988Z,63.40
2018-03-26T14:56:37.491Z,62.40
2018-03-26T14:59:04.991Z,61.80
2018-03-26T15:01:32.519Z,62.30
2018-03-26T15:04:01.797Z,62.10
2018-03-26T15:06:29.304Z,62.70
2018-03-26T15:08:57.610Z,63.80
2018-03-26T15:11:25.107Z,64.80
2018-03-26T15:13:52.626Z,63.00
2018-03-26T15:16:20.120Z,63.20
2018-03-26T15:18:47.620Z,64.20
2018-03-26T15:21:15.890Z,63.60
2018-03-26T15:23:44.132Z,65.30
2018-03-26T15:26:11.632Z,65.30
2018-03-26T15:28:39.883Z,65.70
2018-03-26T15:31:07.698Z,65.60
2018-03-26T15:33:35.183Z,66.40
2018-03-26T15:36:02.656Z,65.70
2018-03-26T15:38:30.188Z,65.80
2018-03-26T15:40:57.662Z,66.40
2018-03-26T15:43:25.139Z,65.80
2018-03-26T15:45:52.655Z,66.00
2018-03-26T15:48:20.132Z,66.30
2018-03-26T15:50:47.623Z,66.80
2018-03-26T15:53:15.872Z,67.90
2018-03-26T15:55:43.348Z,67.90
2018-03-26T15:58:11.684Z,67.00
2018-03-26T16:00:39.888Z,67.10
2018-03-26T16:03:13.020Z,67.00
2018-03-26T16:05:40.507Z,67.50
2018-03-26T16:08:07.981Z,66.90
2018-03-26T16:10:35.497Z,67.10
2018-03-26T16:13:02.995Z,66.30
2018-03-26T16:15:30.476Z,67.10
2018-03-26T16:17:58.744Z,67.00
2018-03-26T16:20:26.225Z,66.90
2018-03-26T16:22:54.471Z,67.10
2018-03-26T16:25:21.970Z,67.10
2018-03-26T16:27:49.467Z,67.10
2018-03-26T16:30:16.951Z,67.20
2018-03-26T16:32:44.429Z,67.00
2018-03-26T16:35:12.668Z,66.90
2018-03-26T16:37:40.162Z,66.90
2018-03-26T16:40:08.416Z,67.40
2018-03-26T16:42:42.623Z,67.40
2018-03-26T16:45:10.104Z,67.30
2018-03-26T16:47:38.362Z,68.70
2018-03-26T16:50:05.842Z,68.70
2018-03-26T16:52:34.116Z,69.70
2018-03-26T16:55:02.381Z,70.10
2018-03-26T16:57:30.640Z,70.70
2018-03-26T16:59:58.120Z,70.70
2018-03-26T17:02:26.356Z,71.80
2018-03-26T17:04:53.905Z,71.80
2018-03-26T17:07:21.365Z,73.20
2018-03-26T17:09:48.877Z,74.30
2018-03-26T17:12:16.349Z,74.50
2018-03-26T17:14:43.852Z,75.30
2018-03-26T17:17:11.339Z,75.70
2018-03-26T17:19:38.878Z,76.40
2018-03-26T17:22:06.403Z,76.20
2018-03-26T17:24:33.864Z,76.70
2018-03-26T17:27:01.403Z,76.60
2018-03-26T17:29:28.905Z,77.00
2018-03-26T17:31:56.376Z,76.20
2018-03-26T17:34:23.860Z,76.50
2018-03-26T17:36:51.322Z,77.30
2018-03-26T17:39:18.806Z,77.00
2018-03-26T17:41:46.302Z,77.00
2018-03-26T17:44:14.547Z,75.80
2018-03-26T17:46:42.015Z,75.80
2018-03-26T17:49:09.550Z,76.90
2018-03-26T17:51:37.021Z,76.30
2018-03-26T17:54:04.527Z,76.60
2018-03-26T17:56:32.783Z,77.00
2018-03-26T17:59:00.298Z,77.00
2018-03-26T18:01:27.794Z,75.30
2018-03-26T18:03:55.272Z,75.10
2018-03-26T18:06:22.797Z,74.90
2018-03-26T18:08:50.279Z,75.40
2018-03-26T18:11:18.559Z,74.40
2018-03-26T18:13:46.814Z,75.30
2018-03-26T18:16:14.302Z,75.30
2018-03-26T18:18:42.791Z,76.30
2018-03-26T18:21:10.318Z,76.20
2018-03-26T18:23:37.817Z,76.30
2018-03-26T18:26:05.305Z,75.00
2018-03-26T18:28:32.807Z,74.40
2018-03-26T18:31:00.315Z,74.90
2018-03-26T18:33:27.801Z,75.20
2018-03-26T18:35:55.298Z,74.60
2018-03-26T18:38:23.566Z,75.10
2018-03-26T18:40:51.063Z,75.10
2018-03-26T18:43:18.559Z,75.60
2018-03-26T18:45:46.849Z,76.30
2018-03-26T18:48:15.152Z,76.10
2018-03-26T18:50:42.642Z,76.00
2018-03-26T18:53:10.182Z,76.50
2018-03-26T18:55:38.423Z,76.20
2018-03-26T18:58:06.742Z,76.70
2018-03-26T19:00:34.261Z,76.60
2018-03-26T19:03:01.796Z,76.30
2018-03-26T19:05:29.273Z,77.10
2018-03-26T19:07:56.737Z,77.30
2018-03-26T19:10:24.232Z,77.30
2018-03-26T19:12:51.732Z,77.20
2018-03-26T19:15:19.243Z,78.40
2018-03-26T19:17:46.763Z,78.20
2018-03-26T19:20:14.272Z,78.60
2018-03-26T19:22:41.820Z,79.10
2018-03-26T19:25:09.319Z,79.50
2018-03-26T19:27:36.798Z,80.10
2018-03-26T19:30:04.315Z,81.00
2018-03-26T19:32:31.835Z,81.10
2018-03-26T19:34:59.296Z,81.20
2018-03-26T19:37:26.796Z,81.80
2018-03-26T19:39:54.277Z,82.70
2018-03-26T19:42:22.568Z,82.80
2018-03-26T19:44:50.086Z,82.70
2018-03-26T19:47:17.567Z,82.90
2018-03-26T19:49:45.061Z,82.90
2018-03-26T19:52:12.548Z,83.60
2018-03-26T19:54:40.054Z,84.20
2018-03-26T19:57:07.541Z,84.90
2018-03-26T19:59:35.064Z,85.00
2018-03-26T20:02:02.569Z,85.70
2018-03-26T20:04:31.982Z,86.10
2018-03-26T20:06:59.597Z,86.00
2018-03-26T20:09:27.075Z,86.20
2018-03-26T20:11:54.578Z,86.80
2018-03-26T20:14:22.110Z,86.60
2018-03-26T20:16:56.084Z,86.50
2018-03-26T20:19:24.684Z,86.60
2018-03-26T20:21:58.753Z,87.30
2018-03-26T20:24:26.276Z,87.60
2018-03-26T20:26:53.808Z,87.80
2018-03-26T20:29:21.307Z,88.00
2018-03-26T20:31:48.857Z,87.90
2018-03-26T20:34:16.368Z,88.10
2018-03-26T20:36:43.868Z,88.30
2018-03-26T20:39:11.377Z,88.80
2018-03-26T20:41:38.870Z,89.80
2018-03-26T20:44:06.358Z,90.20
2018-03-26T20:46:33.867Z,90.30
2018-03-26T20:49:01.418Z,90.40
2018-03-26T20:51:28.921Z,90.50
2018-03-26T20:53:56.411Z,90.60
2018-03-26T20:56:23.908Z,90.90
2018-03-26T20:58:51.428Z,91.10
2018-03-26T21:01:18.961Z,91.30
2018-03-26T21:03:46.472Z,91.30
2018-03-26T21:06:13.978Z,91.40
2018-03-26T21:08:41.483Z,91.40
2018-03-26T21:11:08.993Z,91.60
2018-03-26T21:13:36.499Z,92.00
2018-03-26T21:16:03.999Z,91.70
2018-03-26T21:18:31.471Z,91.70
2018-03-26T21:20:58.977Z,91.80
2018-03-26T21:23:26.480Z,91.50
2018-03-26T21:25:53.960Z,91.70
2018-03-26T21:28:22.544Z,91.50
2018-03-26T21:30:50.060Z,91.50
2018-03-26T21:33:17.544Z,91.90
2018-03-26T21:35:45.851Z,92.10
2018-03-26T21:38:14.101Z,91.70
2018-03-26T21:40:41.945Z,91.70
2018-03-26T21:43:09.438Z,91.90
2018-03-26T21:45:41.047Z,92.30
2018-03-26T21:48:08.608Z,92.30
2018-03-26T21:50:36.103Z,92.20
2018-03-26T21:53:03.623Z,92.50
2018-03-26T21:55:31.174Z,92.30
2018-03-26T21:57:58.684Z,92.40
2018-03-26T22:00:26.222Z,92.70
2018-03-26T22:02:53.706Z,92.60
2018-03-26T22:05:28.303Z,93.00
2018-03-26T22:07:55.790Z,92.90
2018-03-26T22:10:24.064Z,92.50
2018-03-26T22:12:52.367Z,92.70
2018-03-26T22:15:19.854Z,92.60
2018-03-26T22:17:47.354Z,92.90
2018-03-26T22:20:15.610Z,92.50
2018-03-26T22:22:43.102Z,92.40
2018-03-26T22:25:10.596Z,92.70
2018-03-26T22:27:38.063Z,92.80
2018-03-26T22:30:05.592Z,92.60
2018-03-26T22:32:33.064Z,92.70
2018-03-26T22:35:00.531Z,92.90
2018-03-26T22:37:28.041Z,93.00
2018-03-26T22:39:56.081Z,93.20
2018-03-26T22:42:23.572Z,93.40
2018-03-26T22:44:51.065Z,93.40
2018-03-26T22:47:18.558Z,93.20
2018-03-26T22:49:46.070Z,92.90
2018-03-26T22:52:13.574Z,92.70
2018-03-26T22:54:41.071Z,92.50
2018-03-26T22:57:08.560Z,92.60
2018-03-26T22:59:36.086Z,92.80
2018-03-26T23:02:03.587Z,92.80
2018-03-26T23:04:31.085Z,93.30
2018-03-26T23:06:58.630Z,93.30
2018-03-26T23:09:26.146Z,93.20
2018-03-26T23:11:53.617Z,93.10
2018-03-26T23:14:21.123Z,93.10
2018-03-26T23:16:48.614Z,93.10
2018-03-26T23:19:16.136Z,93.00
2018-03-26T23:21:43.623Z,93.50
2018-03-26T23:24:11.114Z,93.50
2018-03-26T23:26:38.632Z,93.50
2018-03-26T23:29:10.001Z,93.80
2018-03-26T23:31:37.503Z,93.60
2018-03-26T23:34:05.000Z,93.70
2018-03-26T23:36:32.497Z,93.40
2018-03-26T23:39:00.003Z,93.00
2018-03-26T23:41:27.545Z,93.40
2018-03-26T23:43:55.045Z,93.60
2018-03-26T23:46:22.531Z,93.70
2018-03-26T23:48:50.012Z,93.70
2018-03-26T23:51:17.573Z,93.80
2018-03-26T23:53:45.059Z,93.90
2018-03-26T23:56:12.537Z,93.60
2018-03-26T23:58:40.044Z,93.40
